createdAt,value
2022-10-28T00:01:28.982Z,0
2022-10-28T00:06:47.756Z,0
2022-10-28T00:12:06.547Z,0
2022-10-28T00:22:45.718Z,0
2022-10-28T00:28:04.812Z,0
2022-10-28T00:33:23.562Z,0
2022-10-28T00:38:43.248Z,0
2022-10-28T00:44:02.614Z,0
2022-10-28T00:49:21.826Z,0
2022-10-28T00:54:40.715Z,0
2022-10-28T01:05:18.619Z,0
2022-10-28T01:10:37.945Z,0
2022-10-28T01:15:57.611Z,0
2022-10-28T01:21:16.285Z,0
2022-10-28T01:26:35.715Z,0
2022-10-28T01:31:55.364Z,0
2022-10-28T01:37:14.187Z,0
2022-10-28T01:42:33.137Z,0
2022-10-28T01:47:52.499Z,0
2022-10-28T01:53:11.572Z,0
2022-10-28T01:59:45.772Z,0
2022-10-28T02:04:01.185Z,0
2022-10-28T02:09:10.060Z,0
2022-10-28T02:14:29.635Z,0
2022-10-28T02:19:48.248Z,0
2022-10-28T02:25:07.004Z,0
2022-10-28T02:30:26.224Z,0
2022-10-28T02:35:45.399Z,0
2022-10-28T02:46:32.940Z,0
2022-10-28T02:51:42.976Z,0
2022-10-28T02:57:02.372Z,0
2022-10-28T03:02:22.458Z,0
2022-10-28T03:07:41.413Z,0
2022-10-28T03:13:00.472Z,0
2022-10-28T03:18:45.375Z,0
2022-10-28T03:25:19.533Z,0
2022-10-28T03:29:24.297Z,0
2022-10-28T03:34:43.921Z,0
2022-10-28T03:40:03.550Z,0
2022-10-28T03:45:22.655Z,0
2022-10-28T03:50:42.024Z,0
2022-10-28T03:56:00.126Z,0
2022-10-28T04:01:20.066Z,0
2022-10-28T04:06:38.771Z,0
2022-10-28T04:11:57.230Z,0
2022-10-28T04:17:16.323Z,0
2022-10-28T04:22:35.637Z,0
2022-10-28T04:27:54.525Z,0
2022-10-28T04:33:13.555Z,0
2022-10-28T04:43:53.278Z,0
2022-10-28T04:54:31.108Z,0
2022-10-28T04:59:50.104Z,0
2022-10-28T05:05:10.167Z,0
2022-10-28T05:10:29.342Z,0
2022-10-28T05:15:48.479Z,0
2022-10-28T05:21:07.059Z,0
2022-10-28T05:26:27.103Z,0
2022-10-28T05:33:01.446Z,0
2022-10-28T05:37:16.692Z,0
2022-10-28T05:42:25.103Z,0
2022-10-28T05:47:43.945Z,0
2022-10-28T05:53:03.019Z,0
2022-10-28T05:58:21.857Z,0.003
2022-10-28T06:03:41.602Z,0.012
2022-10-28T06:09:00.541Z,0.022
2022-10-28T06:19:37.887Z,0.0274
2022-10-28T06:24:56.061Z,0.0288
2022-10-28T06:30:15.701Z,0.0349
2022-10-28T06:35:35.399Z,0.0402
2022-10-28T06:40:55.138Z,0.0502
2022-10-28T06:46:14.128Z,0.0619
2022-10-28T06:51:34.600Z,0.0755
2022-10-28T07:02:13.872Z,0.0895
2022-10-28T07:07:33.409Z,0.1008
2022-10-28T07:12:51.796Z,0.0995
2022-10-28T07:18:11.140Z,0.0959
2022-10-28T07:23:30.437Z,0.0946
2022-10-28T07:28:49.261Z,0.0937
2022-10-28T07:34:08.348Z,0.1045
2022-10-28T07:39:27.921Z,0.1205
2022-10-28T07:46:02.033Z,0.1551
2022-10-28T08:00:46.290Z,0.2412
2022-10-28T08:06:05.825Z,0.3117
2022-10-28T08:11:24.940Z,0.2603
2022-10-28T08:16:44.461Z,0.3992
2022-10-28T08:22:14.642Z,0.3698
2022-10-28T08:27:22.992Z,0.4007
2022-10-28T08:32:41.822Z,0.4192
2022-10-28T08:39:15.995Z,0.5636
2022-10-28T08:43:30.457Z,0.7012
2022-10-28T08:48:40.637Z,0.2644
2022-10-28T08:54:00.048Z,0.2169
2022-10-28T08:59:28.977Z,0.206
2022-10-28T09:04:37.366Z,0.1942
2022-10-28T09:09:56.286Z,0.1701
2022-10-28T09:15:15.825Z,0.1932
2022-10-28T09:25:54.231Z,0.1993
2022-10-28T09:31:13.708Z,0.2038
2022-10-28T09:36:32.582Z,0.3287
2022-10-28T09:43:06.788Z,0.3383
2022-10-28T09:52:31.438Z,0.9617
2022-10-28T10:01:04.519Z,0.4669
2022-10-28T10:05:19.929Z,0.5614
2022-10-28T10:08:28.832Z,1.2511
2022-10-28T10:13:47.497Z,1.3253
2022-10-28T10:19:07.049Z,1.4186
2022-10-28T10:24:26.647Z,0.5499
2022-10-28T10:31:00.817Z,0.7342
2022-10-28T10:35:05.532Z,0.4589
2022-10-28T10:40:23.300Z,0.6906
2022-10-28T10:45:42.628Z,1.2777
2022-10-28T10:51:02.189Z,0.8728
2022-10-28T10:56:21.408Z,1.5823
2022-10-28T11:02:56.021Z,1.3596
2022-10-28T11:07:12.303Z,0.4861
2022-10-28T11:12:19.684Z,0.271
2022-10-28T11:24:35.795Z,0.4286
2022-10-28T11:33:33.906Z,0.5772
2022-10-28T11:44:11.606Z,0.9628
2022-10-28T12:21:24.788Z,1.0669
2022-10-28T12:26:44.142Z,0.63
2022-10-28T12:32:02.826Z,0.9996
2022-10-28T12:42:41.217Z,0.6574
2022-10-28T12:48:00.946Z,0.6079
2022-10-28T12:53:20.062Z,0.6749
2022-10-28T12:58:39.443Z,0.6685
2022-10-28T13:03:58.841Z,0.6734
2022-10-28T13:09:18.115Z,0.6808
2022-10-28T13:14:37.420Z,0.6687
2022-10-28T13:19:56.513Z,0.5585
2022-10-28T13:26:30.655Z,0.5308
2022-10-28T13:30:35.913Z,0.4829
2022-10-28T13:41:13.922Z,0.4236
2022-10-28T13:46:33.184Z,0.4411
2022-10-28T13:51:51.108Z,0.3871
2022-10-28T13:57:10.517Z,0.3384
2022-10-28T14:02:34.899Z,0.2038
2022-10-28T14:07:48.584Z,0.1775
2022-10-28T14:13:07.431Z,0.1553
2022-10-28T14:23:45.068Z,0.1593
2022-10-28T14:29:04.484Z,0.1356
2022-10-28T14:39:42.892Z,0.1071
2022-10-28T14:45:11.209Z,0.1078
2022-10-28T14:50:21.592Z,0.0946
2022-10-28T14:55:40.256Z,0.0785
2022-10-28T15:00:58.433Z,0.0765
2022-10-28T15:06:18.595Z,0.0721
2022-10-28T15:11:38.183Z,0.0649
2022-10-28T15:22:16.049Z,0.0553
2022-10-28T15:27:34.987Z,0.0495
2022-10-28T15:32:54.499Z,0.0448
2022-10-28T15:38:13.676Z,0.0444
2022-10-28T15:48:52.454Z,0.0366
2022-10-28T15:54:11.236Z,0.0337
2022-10-28T16:04:48.977Z,0.0161
2022-10-28T16:10:07.681Z,0.0054
2022-10-28T16:20:46.361Z,0
2022-10-28T16:26:05.825Z,0
2022-10-28T16:31:25.445Z,0
2022-10-28T16:36:43.590Z,0
2022-10-28T16:42:03.148Z,0
2022-10-28T16:47:22.522Z,0
2022-10-28T16:52:41.269Z,0
2022-10-28T17:03:19.675Z,0
2022-10-28T17:09:02.687Z,0
2022-10-28T17:13:58.363Z,0
2022-10-28T17:19:16.991Z,0
2022-10-28T17:24:36.655Z,0
2022-10-28T17:29:55.526Z,0
2022-10-28T17:35:14.153Z,0
2022-10-28T17:40:33.644Z,0
2022-10-28T17:45:53.243Z,0
2022-10-28T17:51:12.501Z,0
2022-10-28T17:56:31.543Z,0
2022-10-28T18:01:51.009Z,0
2022-10-28T18:07:09.134Z,0
2022-10-28T18:12:29.109Z,0
2022-10-28T18:23:06.694Z,0
2022-10-28T18:28:26.352Z,0
2022-10-28T18:33:45.727Z,0
2022-10-28T18:39:04.493Z,0
2022-10-28T18:44:24.858Z,0
2022-10-28T18:49:44.393Z,0
2022-10-28T18:56:18.572Z,0
2022-10-28T19:00:23.389Z,0
2022-10-28T19:05:43.034Z,0
2022-10-28T19:11:02.101Z,0
2022-10-28T19:21:38.670Z,0
2022-10-28T19:26:57.952Z,0
2022-10-28T19:32:17.366Z,0
2022-10-28T19:37:36.879Z,0
2022-10-28T19:42:55.959Z,0
2022-10-28T19:48:15.476Z,0
2022-10-28T19:53:35.162Z,0
2022-10-28T20:04:12.781Z,0
2022-10-28T20:09:31.562Z,0
2022-10-28T20:14:51.127Z,0
2022-10-28T20:20:20.187Z,0
2022-10-28T20:25:30.421Z,0
2022-10-28T20:30:49.790Z,0
2022-10-28T20:36:09.170Z,0
2022-10-28T20:41:36.786Z,0
2022-10-28T20:46:47.360Z,0
2022-10-28T20:52:06.274Z,0
2022-10-28T20:57:25.669Z,0
2022-10-28T21:02:44.619Z,0
2022-10-28T21:08:04.177Z,0
2022-10-28T21:08:30.242Z,0
2022-10-28T21:13:49.067Z,0
2022-10-28T21:19:07.273Z,0
2022-10-28T21:24:26.455Z,0
2022-10-28T21:35:04.409Z,0
2022-10-28T21:40:24.541Z,0
2022-10-28T21:46:58.743Z,0
2022-10-28T21:51:06.217Z,0
2022-10-28T21:56:24.133Z,0
2022-10-28T22:01:43.898Z,0
2022-10-28T22:07:01.495Z,0
2022-10-28T22:17:39.813Z,0
2022-10-28T22:22:58.949Z,0
2022-10-28T22:28:18.503Z,0
2022-10-28T22:33:37.629Z,0
2022-10-28T22:38:56.298Z,0
2022-10-28T22:44:15.853Z,0
2022-10-28T22:49:35.016Z,0
2022-10-28T23:00:14.735Z,0
2022-10-28T23:05:42.627Z,0
2022-10-28T23:16:12.640Z,0
2022-10-28T23:21:31.502Z,0
2022-10-28T23:26:50.689Z,0
2022-10-28T23:32:10.156Z,0
2022-10-28T23:37:38.426Z,0
2022-10-28T23:42:48.067Z,0
2022-10-28T23:53:38.755Z,0
2022-10-28T23:58:46.308Z,0
